createdAt,value
2023-11-29T00:02:18.087Z,11.73
2023-11-29T00:04:44.932Z,9.85
2023-11-29T00:07:11.654Z,11.65
2023-11-29T00:09:39.218Z,8.25
2023-11-29T00:12:06.197Z,9.20
2023-11-29T00:14:33.593Z,9.52
2023-11-29T00:17:08.598Z,7.93
2023-11-29T00:19:38.911Z,8.02
2023-11-29T00:22:06.164Z,8.23
2023-11-29T00:24:32.992Z,8.50
2023-11-29T00:27:00.035Z,9.88
2023-11-29T00:29:26.759Z,9.30
2023-11-29T00:31:53.457Z,9.30
2023-11-29T00:34:20.109Z,8.40
2023-11-29T00:36:47.750Z,9.27
2023-11-29T00:39:15.383Z,7.43
2023-11-29T00:41:42.047Z,7.97
2023-11-29T00:44:08.756Z,10.10
2023-11-29T00:46:35.427Z,7.85
2023-11-29T00:49:02.106Z,7.78
2023-11-29T00:51:28.795Z,8.15
2023-11-29T00:53:55.421Z,8.18
2023-11-29T00:56:22.188Z,9.55
2023-11-29T00:58:48.862Z,10.23
2023-11-29T01:01:17.705Z,10.90
2023-11-29T01:03:44.506Z,9.15
2023-11-29T01:06:11.239Z,10.10
2023-11-29T01:08:38.032Z,11.13
2023-11-29T01:11:07.777Z,11.75
2023-11-29T01:13:34.445Z,11.23
2023-11-29T01:16:01.112Z,12.02
2023-11-29T01:18:33.644Z,14.18
2023-11-29T01:21:00.386Z,11.43
2023-11-29T01:23:27.028Z,11.07
2023-11-29T01:25:53.683Z,12.70
2023-11-29T01:28:20.316Z,12.55
2023-11-29T01:30:53.254Z,11.38
2023-11-29T01:33:19.871Z,10.93
2023-11-29T01:35:46.603Z,11.52
2023-11-29T01:38:13.488Z,11.70
2023-11-29T01:40:40.116Z,11.70
2023-11-29T01:43:06.725Z,11.10
2023-11-29T01:45:33.427Z,11.05
2023-11-29T01:48:00.571Z,10.48
2023-11-29T01:50:33.232Z,10.40
2023-11-29T01:52:59.968Z,11.27
2023-11-29T01:55:28.644Z,13.35
2023-11-29T01:57:57.525Z,11.38
2023-11-29T02:00:24.185Z,11.30
2023-11-29T02:02:51.126Z,10.85
2023-11-29T02:05:17.940Z,13.60
2023-11-29T02:07:45.219Z,11.50
2023-11-29T02:10:11.936Z,12.10
2023-11-29T02:12:38.815Z,13.25
2023-11-29T02:15:06.022Z,11.82
2023-11-29T02:17:33.028Z,10.73
2023-11-29T02:19:59.771Z,12.80
2023-11-29T02:22:28.844Z,11.85
2023-11-29T02:24:55.493Z,12.68
2023-11-29T02:27:22.793Z,10.98
2023-11-29T02:29:49.460Z,11.35
2023-11-29T02:32:16.213Z,10.10
2023-11-29T02:34:42.921Z,9.55
2023-11-29T02:37:09.609Z,10.23
2023-11-29T02:39:36.324Z,8.73
2023-11-29T02:42:03.013Z,9.75
2023-11-29T02:44:30.122Z,8.82
2023-11-29T02:46:56.960Z,9.80
2023-11-29T02:49:25.163Z,11.02
2023-11-29T02:51:52.043Z,9.55
2023-11-29T02:54:19.269Z,8.18
2023-11-29T02:56:46.014Z,8.57
2023-11-29T02:59:12.897Z,9.80
2023-11-29T03:01:40.098Z,8.35
2023-11-29T03:04:06.800Z,12.70
2023-11-29T03:06:33.430Z,7.93
2023-11-29T03:09:00.107Z,8.32
2023-11-29T03:11:26.732Z,7.85
2023-11-29T03:13:53.413Z,7.97
2023-11-29T03:16:20.210Z,9.63
2023-11-29T03:18:46.844Z,8.68
2023-11-29T03:21:13.844Z,7.57
2023-11-29T03:23:41.152Z,7.72
2023-11-29T03:26:08.009Z,7.80
2023-11-29T03:28:34.664Z,8.85
2023-11-29T03:31:01.384Z,7.93
2023-11-29T03:33:28.908Z,6.25
2023-11-29T03:35:57.481Z,7.55
2023-11-29T03:38:24.169Z,6.57
2023-11-29T03:40:50.843Z,7.18
2023-11-29T03:43:17.478Z,6.30
2023-11-29T03:45:44.154Z,6.45
2023-11-29T03:48:10.925Z,7.10
2023-11-29T03:50:37.624Z,7.22
2023-11-29T03:53:04.317Z,6.53
2023-11-29T03:55:31.008Z,9.00
2023-11-29T03:57:57.609Z,6.70
2023-11-29T04:00:24.727Z,7.43
2023-11-29T04:02:51.437Z,7.32
2023-11-29T04:05:18.464Z,6.18
2023-11-29T04:07:45.216Z,5.57
2023-11-29T04:10:11.985Z,7.47
2023-11-29T04:12:39.968Z,5.47
2023-11-29T04:15:07.557Z,7.38
2023-11-29T04:17:34.495Z,6.20
2023-11-29T04:20:01.179Z,5.97
2023-11-29T04:22:27.796Z,6.18
2023-11-29T04:24:54.502Z,5.82
2023-11-29T04:27:21.442Z,5.82
2023-11-29T04:29:48.183Z,7.00
2023-11-29T04:32:15.077Z,5.90
2023-11-29T04:34:47.595Z,7.63
2023-11-29T04:37:15.673Z,7.32
2023-11-29T04:39:43.738Z,6.57
2023-11-29T04:42:10.909Z,6.60
2023-11-29T04:44:37.872Z,7.60
2023-11-29T04:47:05.052Z,9.10
2023-11-29T04:49:32.007Z,8.10
2023-11-29T04:51:58.829Z,7.93
2023-11-29T04:54:25.591Z,8.18
2023-11-29T04:56:52.484Z,9.32
2023-11-29T04:59:19.365Z,9.90
2023-11-29T05:01:46.578Z,7.90
2023-11-29T05:04:13.622Z,8.60
2023-11-29T05:06:40.404Z,10.30
2023-11-29T05:09:07.689Z,10.13
2023-11-29T05:11:34.738Z,10.90
2023-11-29T05:14:01.814Z,9.90
2023-11-29T05:16:28.605Z,10.90
2023-11-29T05:18:55.754Z,10.85
2023-11-29T05:21:22.743Z,12.05
2023-11-29T05:23:49.444Z,11.07
2023-11-29T05:26:16.155Z,10.52
2023-11-29T05:28:42.837Z,12.30
2023-11-29T05:31:09.612Z,10.73
2023-11-29T05:33:36.312Z,11.23
2023-11-29T05:36:04.017Z,11.57
2023-11-29T05:38:30.682Z,10.38
2023-11-29T05:40:58.599Z,11.85
2023-11-29T05:43:25.881Z,11.63
2023-11-29T05:45:52.492Z,13.00
2023-11-29T05:48:19.400Z,12.43
2023-11-29T05:50:46.211Z,14.18
2023-11-29T05:53:12.912Z,12.45
2023-11-29T05:55:42.224Z,13.75
2023-11-29T05:58:08.856Z,12.70
2023-11-29T06:00:35.504Z,13.38
2023-11-29T06:03:02.964Z,11.60
2023-11-29T06:05:31.188Z,15.23
2023-11-29T06:07:58.712Z,11.82
2023-11-29T06:10:25.943Z,14.13
2023-11-29T06:12:52.585Z,13.32
2023-11-29T06:15:19.638Z,12.00
2023-11-29T06:17:46.650Z,12.52
2023-11-29T06:20:13.527Z,14.75
2023-11-29T06:22:40.400Z,12.50
2023-11-29T06:25:17.148Z,15.15
2023-11-29T06:27:45.702Z,13.00
2023-11-29T06:30:12.938Z,14.18
2023-11-29T06:32:42.703Z,13.30
2023-11-29T06:35:13.144Z,14.13
2023-11-29T06:37:40.333Z,15.10
2023-11-29T06:40:11.890Z,15.15
2023-11-29T06:42:40.976Z,13.18
2023-11-29T06:45:08.662Z,14.65
2023-11-29T06:47:35.484Z,15.80
2023-11-29T06:50:05.190Z,14.88
2023-11-29T06:52:32.859Z,15.10
2023-11-29T06:55:00.099Z,13.82
2023-11-29T06:57:26.759Z,14.38
2023-11-29T06:59:54.175Z,14.00
2023-11-29T07:02:21.657Z,13.93
2023-11-29T07:04:49.763Z,13.07
2023-11-29T07:07:19.504Z,13.00
2023-11-29T07:09:47.472Z,13.57
2023-11-29T07:12:14.225Z,12.63
2023-11-29T07:14:40.872Z,13.02
2023-11-29T07:17:07.640Z,13.27
2023-11-29T07:19:34.494Z,12.00
2023-11-29T07:22:01.516Z,15.02
2023-11-29T07:24:28.261Z,13.15
2023-11-29T07:26:55.114Z,13.40
2023-11-29T07:29:21.846Z,12.60
2023-11-29T07:31:48.874Z,13.13
2023-11-29T07:34:15.571Z,12.48
2023-11-29T07:36:45.427Z,12.65
2023-11-29T07:39:12.070Z,15.63
2023-11-29T07:41:38.752Z,16.45
2023-11-29T07:44:05.373Z,12.60
2023-11-29T07:46:32.096Z,12.25
2023-11-29T07:49:01.625Z,13.35
2023-11-29T07:51:30.230Z,14.05
2023-11-29T07:53:56.960Z,11.93
2023-11-29T07:56:23.742Z,10.95
2023-11-29T07:58:50.493Z,13.07
2023-11-29T08:01:17.266Z,10.90
2023-11-29T08:03:43.912Z,13.60
2023-11-29T08:06:10.624Z,10.82
2023-11-29T08:08:37.325Z,12.30
2023-11-29T08:11:03.976Z,12.77
2023-11-29T08:13:30.657Z,11.00
2023-11-29T08:15:57.812Z,11.80
2023-11-29T08:18:24.562Z,12.10
2023-11-29T08:20:53.539Z,13.00
2023-11-29T08:23:20.388Z,11.75
2023-11-29T08:25:47.409Z,13.07
2023-11-29T08:28:14.065Z,10.23
2023-11-29T08:30:40.736Z,11.02
2023-11-29T08:33:08.734Z,11.90
2023-11-29T08:35:35.617Z,10.55
2023-11-29T08:38:02.440Z,8.30
2023-11-29T08:40:29.067Z,9.35
2023-11-29T08:42:56.541Z,10.63
2023-11-29T08:45:23.568Z,10.15
2023-11-29T08:47:50.473Z,10.32
2023-11-29T08:50:17.215Z,10.57
2023-11-29T08:52:45.012Z,10.88
2023-11-29T08:55:12.001Z,12.48
2023-11-29T08:57:40.099Z,11.38
2023-11-29T09:00:10.482Z,11.55
2023-11-29T09:02:37.840Z,12.10
2023-11-29T09:05:05.370Z,11.60
2023-11-29T09:07:32.848Z,12.93
2023-11-29T09:09:59.589Z,12.68
2023-11-29T09:12:27.009Z,14.15
2023-11-29T09:14:57.264Z,12.40
2023-11-29T09:17:27.141Z,12.13
2023-11-29T09:19:55.908Z,12.65
2023-11-29T09:22:22.834Z,13.00
2023-11-29T09:24:49.992Z,16.23
2023-11-29T09:27:16.628Z,12.43
2023-11-29T09:29:43.718Z,14.63
2023-11-29T09:32:10.321Z,12.90
2023-11-29T09:34:37.416Z,12.73
2023-11-29T09:37:04.382Z,12.43
2023-11-29T09:39:31.622Z,11.05
2023-11-29T09:42:00.219Z,13.05
2023-11-29T09:44:27.529Z,12.18
2023-11-29T09:46:54.799Z,12.40
2023-11-29T09:49:21.813Z,22.92
2023-11-29T09:51:48.563Z,12.07
2023-11-29T09:54:15.369Z,9.30
2023-11-29T09:56:42.902Z,8.93
2023-11-29T09:59:09.835Z,9.95
2023-11-29T10:01:38.342Z,8.98
2023-11-29T10:04:09.539Z,7.72
2023-11-29T10:06:36.664Z,10.18
2023-11-29T10:09:06.711Z,9.57
2023-11-29T10:11:34.373Z,9.38
2023-11-29T10:14:01.053Z,10.02
2023-11-29T10:16:31.535Z,6.88
2023-11-29T10:18:59.596Z,7.40
2023-11-29T10:21:26.381Z,8.02
2023-11-29T10:23:53.169Z,8.38
2023-11-29T10:26:19.883Z,10.45
2023-11-29T10:28:46.568Z,18.25
2023-11-29T10:31:17.616Z,11.68
2023-11-29T10:33:47.360Z,8.50
2023-11-29T10:36:14.679Z,10.43
2023-11-29T10:38:58.044Z,8.32
2023-11-29T10:41:27.221Z,8.15
2023-11-29T10:44:00.476Z,10.43
2023-11-29T10:46:32.459Z,7.20
2023-11-29T10:49:20.228Z,7.65
2023-11-29T10:51:47.249Z,8.57
2023-11-29T10:54:38.936Z,9.30
2023-11-29T10:57:06.007Z,7.85
2023-11-29T10:59:39.616Z,7.32
2023-11-29T11:02:07.694Z,8.27
2023-11-29T11:04:36.467Z,6.72
2023-11-29T11:07:04.524Z,6.40
2023-11-29T11:09:45.372Z,6.30
2023-11-29T11:12:34.141Z,6.88
2023-11-29T11:15:08.758Z,9.63
2023-11-29T11:17:37.695Z,9.23
2023-11-29T11:20:09.033Z,8.25
2023-11-29T11:22:42.837Z,7.65
2023-11-29T11:25:17.083Z,8.45
2023-11-29T11:27:49.326Z,6.65
2023-11-29T11:30:16.297Z,7.35
2023-11-29T11:32:50.428Z,7.10
2023-11-29T11:35:25.110Z,7.35
2023-11-29T11:38:07.466Z,8.00
2023-11-29T11:40:39.115Z,7.10
2023-11-29T11:43:06.968Z,7.80
2023-11-29T11:45:37.683Z,5.95
2023-11-29T11:48:06.303Z,6.40
2023-11-29T11:50:34.232Z,5.93
2023-11-29T11:53:01.421Z,6.32
2023-11-29T11:55:31.404Z,7.63
2023-11-29T11:58:00.728Z,6.30
2023-11-29T12:00:29.272Z,7.05
2023-11-29T12:02:56.288Z,7.50
2023-11-29T12:05:23.351Z,7.13
2023-11-29T12:07:50.907Z,7.78
2023-11-29T12:10:17.840Z,6.00
2023-11-29T12:12:45.472Z,6.50
2023-11-29T12:15:16.862Z,6.65
2023-11-29T12:17:45.676Z,6.63
2023-11-29T12:20:14.039Z,6.03
2023-11-29T12:22:43.524Z,6.22
2023-11-29T12:25:16.300Z,5.20
2023-11-29T12:27:51.569Z,6.97
2023-11-29T12:30:18.838Z,5.82
2023-11-29T12:32:46.081Z,5.63
2023-11-29T12:35:16.651Z,4.80
2023-11-29T12:37:46.646Z,7.03
2023-11-29T12:40:18.560Z,5.28
2023-11-29T12:42:47.230Z,3.97
2023-11-29T12:45:15.406Z,3.78
2023-11-29T12:47:42.531Z,4.05
2023-11-29T12:50:11.299Z,4.78
2023-11-29T12:52:38.064Z,4.05
2023-11-29T12:55:05.542Z,4.07
2023-11-29T12:57:32.288Z,3.53
2023-11-29T12:59:59.409Z,6.20
2023-11-29T13:02:26.176Z,2.80
2023-11-29T13:04:52.961Z,3.50
2023-11-29T13:07:19.644Z,3.03
2023-11-29T13:09:46.659Z,3.63
2023-11-29T13:12:15.529Z,3.97
2023-11-29T13:14:43.415Z,3.72
2023-11-29T13:17:14.525Z,3.42
2023-11-29T13:19:44.420Z,2.60
2023-11-29T13:22:11.081Z,3.33
2023-11-29T13:24:37.864Z,4.28
2023-11-29T13:27:07.671Z,2.83
2023-11-29T13:29:35.437Z,3.15
2023-11-29T13:32:02.713Z,3.35
2023-11-29T13:34:30.939Z,3.15
2023-11-29T13:36:58.201Z,5.80
2023-11-29T13:39:28.293Z,3.30
2023-11-29T13:41:55.730Z,4.07
2023-11-29T13:44:25.837Z,2.83
2023-11-29T13:46:53.028Z,3.63
2023-11-29T13:49:20.277Z,4.18
2023-11-29T13:51:48.868Z,4.70
2023-11-29T13:54:15.624Z,3.55
2023-11-29T13:56:43.513Z,3.25
2023-11-29T13:59:10.244Z,4.47
2023-11-29T14:01:36.979Z,3.13
2023-11-29T14:04:04.150Z,3.90
2023-11-29T14:06:30.956Z,4.35
2023-11-29T14:08:57.597Z,3.47
2023-11-29T14:11:24.512Z,4.05
2023-11-29T14:13:51.221Z,4.82
2023-11-29T14:16:18.773Z,3.97
2023-11-29T14:18:45.556Z,6.88
2023-11-29T14:21:13.709Z,5.38
2023-11-29T14:23:40.648Z,3.08
2023-11-29T14:26:07.549Z,5.05
2023-11-29T14:28:38.829Z,7.53
2023-11-29T14:31:05.962Z,11.57
2023-11-29T14:33:34.607Z,13.18
2023-11-29T14:36:04.031Z,7.47
2023-11-29T14:38:31.148Z,6.28
2023-11-29T14:41:05.934Z,5.55
2023-11-29T14:43:40.642Z,10.52
2023-11-29T14:46:08.435Z,9.32
2023-11-29T14:48:37.235Z,8.00
2023-11-29T14:51:07.434Z,6.43
2023-11-29T14:53:35.525Z,8.77
2023-11-29T14:56:02.256Z,8.98
2023-11-29T14:58:28.948Z,5.88
2023-11-29T15:00:55.657Z,5.40
2023-11-29T15:03:23.779Z,4.93
2023-11-29T15:05:50.491Z,4.93
2023-11-29T15:08:17.223Z,4.63
2023-11-29T15:10:44.005Z,7.22
2023-11-29T15:13:10.667Z,3.88
2023-11-29T15:15:37.586Z,4.50
2023-11-29T15:18:04.384Z,6.07
2023-11-29T15:20:31.107Z,4.78
2023-11-29T15:22:57.721Z,5.22
2023-11-29T15:25:24.552Z,4.47
2023-11-29T15:27:51.208Z,6.50
2023-11-29T15:30:18.621Z,5.57
2023-11-29T15:32:46.254Z,6.00
2023-11-29T15:35:14.709Z,9.90
2023-11-29T15:37:41.499Z,7.72
2023-11-29T15:40:08.834Z,5.55
2023-11-29T15:42:35.473Z,5.75
2023-11-29T15:45:02.186Z,6.63
2023-11-29T15:47:28.931Z,5.07
2023-11-29T15:49:55.591Z,5.60
2023-11-29T15:52:22.265Z,6.55
2023-11-29T15:54:49.824Z,9.30
2023-11-29T15:57:16.793Z,9.07
2023-11-29T15:59:43.485Z,11.13
2023-11-29T16:02:10.608Z,10.63
2023-11-29T16:04:37.318Z,8.27
2023-11-29T16:07:06.963Z,8.98
2023-11-29T16:09:33.656Z,9.35
2023-11-29T16:12:00.561Z,5.85
2023-11-29T16:14:28.298Z,5.47
2023-11-29T16:16:56.396Z,2.90
2023-11-29T16:19:23.047Z,4.13
2023-11-29T16:21:49.668Z,5.65
2023-11-29T16:24:16.413Z,4.32
2023-11-29T16:26:43.345Z,3.47
2023-11-29T16:29:10.026Z,2.80
2023-11-29T16:31:36.783Z,2.42
2023-11-29T16:34:03.603Z,3.10
2023-11-29T16:36:31.057Z,2.47
2023-11-29T16:38:57.715Z,2.40
2023-11-29T16:41:24.447Z,3.08
2023-11-29T16:43:51.192Z,3.00
2023-11-29T16:46:20.867Z,3.35
2023-11-29T16:48:49.296Z,2.58
2023-11-29T16:51:16.584Z,4.43
2023-11-29T16:53:43.408Z,2.45
2023-11-29T16:56:11.007Z,2.67
2023-11-29T16:58:37.729Z,3.65
2023-11-29T17:01:04.750Z,3.05
2023-11-29T17:03:31.630Z,4.32
2023-11-29T17:05:58.624Z,6.07
2023-11-29T17:08:25.346Z,7.88
2023-11-29T17:10:52.569Z,7.45
2023-11-29T17:13:19.493Z,7.38
2023-11-29T17:15:46.199Z,7.28
2023-11-29T17:18:16.277Z,15.05
2023-11-29T17:20:44.795Z,11.82
2023-11-29T17:23:11.628Z,10.73
2023-11-29T17:25:38.550Z,11.45
2023-11-29T17:28:05.238Z,10.57
2023-11-29T17:30:31.888Z,15.35
2023-11-29T17:32:58.562Z,14.30
2023-11-29T17:35:25.294Z,12.90
2023-11-29T17:37:51.936Z,9.05
2023-11-29T17:40:18.537Z,10.63
2023-11-29T17:42:45.233Z,9.82
2023-11-29T17:45:12.545Z,10.52
2023-11-29T17:47:40.036Z,10.82
2023-11-29T17:50:07.368Z,9.93
2023-11-29T17:52:35.740Z,9.18
2023-11-29T17:55:04.640Z,6.88
2023-11-29T17:57:31.815Z,7.72
2023-11-29T17:59:58.686Z,7.72
2023-11-29T18:02:27.242Z,7.13
2023-11-29T18:04:54.172Z,8.43
2023-11-29T18:07:20.872Z,11.00
2023-11-29T18:09:47.500Z,17.50
2023-11-29T18:12:14.206Z,18.98
2023-11-29T18:14:41.031Z,14.85
2023-11-29T18:17:08.757Z,15.18
2023-11-29T18:19:35.414Z,16.42
2023-11-29T18:22:02.032Z,12.80
2023-11-29T18:24:28.712Z,10.20
2023-11-29T18:26:55.581Z,11.70
2023-11-29T18:29:22.538Z,19.98
2023-11-29T18:31:50.876Z,16.90
2023-11-29T18:34:18.215Z,12.00
2023-11-29T18:36:44.944Z,15.88
2023-11-29T18:39:11.633Z,13.55
2023-11-29T18:41:38.438Z,13.00
2023-11-29T18:44:05.300Z,14.25
2023-11-29T18:46:32.253Z,9.38
2023-11-29T18:48:59.111Z,9.52
2023-11-29T18:51:26.132Z,11.48
2023-11-29T18:53:52.778Z,10.50
2023-11-29T18:56:19.453Z,10.73
2023-11-29T18:58:46.177Z,9.13
2023-11-29T19:01:13.070Z,11.75
2023-11-29T19:03:39.999Z,18.02
2023-11-29T19:06:07.657Z,13.05
2023-11-29T19:08:34.371Z,16.27
2023-11-29T19:11:01.123Z,15.50
2023-11-29T19:13:28.101Z,16.90
2023-11-29T19:15:55.735Z,19.42
2023-11-29T19:18:22.424Z,16.38
2023-11-29T19:20:49.273Z,11.43
2023-11-29T19:23:22.760Z,9.50
2023-11-29T19:25:58.077Z,8.90
2023-11-29T19:28:24.700Z,10.88
2023-11-29T19:30:51.492Z,9.35
2023-11-29T19:33:18.317Z,7.82
2023-11-29T19:35:45.054Z,9.88
2023-11-29T19:38:11.714Z,9.73
2023-11-29T19:40:39.732Z,8.93
2023-11-29T19:43:06.366Z,10.13
2023-11-29T19:45:32.985Z,10.40
2023-11-29T19:47:59.711Z,10.55
2023-11-29T19:50:26.386Z,13.07
2023-11-29T19:52:57.743Z,11.48
2023-11-29T19:55:25.605Z,10.63
2023-11-29T19:57:52.262Z,11.27
2023-11-29T20:00:21.032Z,13.05
2023-11-29T20:02:49.160Z,13.10
2023-11-29T20:05:16.033Z,13.65
2023-11-29T20:07:44.869Z,12.20
2023-11-29T20:10:12.938Z,10.60
2023-11-29T20:12:39.634Z,11.25
2023-11-29T20:15:07.214Z,10.23
2023-11-29T20:17:33.963Z,11.07
2023-11-29T20:20:04.456Z,12.70
2023-11-29T20:22:37.037Z,8.50
2023-11-29T20:25:05.408Z,9.77
2023-11-29T20:27:32.180Z,10.65
2023-11-29T20:29:58.928Z,10.77
2023-11-29T20:32:29.124Z,10.30
2023-11-29T20:35:09.312Z,10.82
2023-11-29T20:37:43.409Z,11.02
2023-11-29T20:40:11.174Z,11.23
2023-11-29T20:42:37.874Z,10.80
2023-11-29T20:45:05.168Z,10.73
2023-11-29T20:47:31.980Z,13.13
2023-11-29T20:49:58.799Z,11.23
2023-11-29T20:52:25.551Z,9.63
2023-11-29T20:54:52.940Z,11.43
2023-11-29T20:57:19.701Z,11.70
2023-11-29T20:59:46.492Z,11.18
2023-11-29T21:02:13.915Z,10.98
2023-11-29T21:04:41.037Z,10.88
2023-11-29T21:07:07.926Z,11.10
2023-11-29T21:09:34.540Z,13.38
2023-11-29T21:12:01.976Z,14.07
2023-11-29T21:14:28.618Z,13.07
2023-11-29T21:16:58.243Z,10.23
2023-11-29T21:19:25.369Z,13.32
2023-11-29T21:21:52.070Z,12.00
2023-11-29T21:24:18.975Z,10.02
2023-11-29T21:26:46.746Z,8.85
2023-11-29T21:29:13.673Z,10.95
2023-11-29T21:31:40.359Z,9.60
2023-11-29T21:34:07.010Z,9.90
2023-11-29T21:36:34.895Z,10.73
2023-11-29T21:39:02.156Z,10.20
2023-11-29T21:41:32.667Z,10.05
2023-11-29T21:44:00.158Z,8.10
2023-11-29T21:46:26.933Z,8.88
2023-11-29T21:48:53.689Z,7.65
2023-11-29T21:51:20.408Z,7.03
2023-11-29T21:53:47.082Z,7.63
2023-11-29T21:56:13.768Z,8.38
2023-11-29T21:58:40.374Z,6.63
2023-11-29T22:01:07.442Z,7.38
2023-11-29T22:03:34.698Z,7.00
2023-11-29T22:06:01.579Z,6.97
2023-11-29T22:08:28.282Z,6.80
2023-11-29T22:10:56.306Z,6.22
2023-11-29T22:13:22.943Z,6.05
2023-11-29T22:15:49.609Z,6.47
2023-11-29T22:18:16.298Z,5.38
2023-11-29T22:20:43.010Z,7.78
2023-11-29T22:23:09.648Z,10.40
2023-11-29T22:25:36.356Z,10.25
2023-11-29T22:28:03.337Z,8.55
2023-11-29T22:30:32.763Z,7.82
2023-11-29T22:32:59.488Z,7.53
2023-11-29T22:35:26.189Z,7.03
2023-11-29T22:37:52.881Z,7.80
2023-11-29T22:40:22.178Z,6.15
2023-11-29T22:42:49.086Z,6.85
2023-11-29T22:45:15.960Z,6.63
2023-11-29T22:47:42.660Z,5.97
2023-11-29T22:50:09.693Z,6.30
2023-11-29T22:52:36.332Z,7.68
2023-11-29T22:55:03.541Z,7.03
2023-11-29T22:57:30.186Z,5.43
2023-11-29T22:59:58.523Z,5.85
2023-11-29T23:02:25.511Z,5.93
2023-11-29T23:04:53.081Z,6.95
2023-11-29T23:07:19.736Z,6.40
2023-11-29T23:09:46.465Z,6.65
2023-11-29T23:12:13.267Z,7.00
2023-11-29T23:14:41.690Z,5.53
2023-11-29T23:17:08.321Z,8.55
2023-11-29T23:19:34.956Z,6.63
2023-11-29T23:22:01.577Z,6.68
2023-11-29T23:24:33.128Z,6.20
2023-11-29T23:26:59.916Z,6.97
2023-11-29T23:29:26.552Z,6.78
2023-11-29T23:31:53.184Z,6.93
2023-11-29T23:34:19.821Z,6.70
2023-11-29T23:36:46.460Z,5.82
2023-11-29T23:39:13.172Z,6.15
2023-11-29T23:41:39.826Z,10.60
2023-11-29T23:44:06.477Z,8.80
2023-11-29T23:46:33.121Z,9.63
2023-11-29T23:49:01.322Z,12.50
2023-11-29T23:51:27.956Z,8.23
2023-11-29T23:53:54.624Z,10.15
2023-11-29T23:56:21.239Z,8.45
2023-11-29T23:58:47.839Z,8.82
